Time;durP1;ratioP1;P1;durP2;ratioP2;P2;SDS_P1;SDS_P2;PMS_P1;PMS_P2;Temp;Humidity;BMP_temperature;BMP_pressure;BME280_temperature;BME280_humidity;BME280_pressure;Samples;Min_cycle;Max_cycle;Signal;HPM_P1;HPM_P2
2024/01/24 00:01:04;;;;;;;1106.40;746.77;;;10.00;99.90;;;;;;4950074;28;20398;-74
2024/01/24 00:03:30;;;;;;;1333.77;927.77;;;10.00;99.90;;;;;;4959360;28;20141;-75
2024/01/24 00:05:56;;;;;;;777.80;698.27;;;10.00;99.90;;;;;;4962052;28;20057;-76
2024/01/24 00:08:22;;;;;;;1534.13;940.07;;;10.10;99.90;;;;;;4948427;28;20035;-75
2024/01/24 00:10:47;;;;;;;804.67;716.23;;;10.10;99.90;;;;;;4960172;28;20123;-75
2024/01/24 00:13:13;;;;;;;849.30;743.37;;;10.20;99.90;;;;;;4949090;28;20039;-76
2024/01/24 00:15:39;;;;;;;1049.30;856.80;;;10.20;99.90;;;;;;4951984;28;20107;-75
2024/01/24 00:18:05;;;;;;;931.63;773.03;;;10.20;99.90;;;;;;4948710;28;20122;-75
2024/01/24 00:20:30;;;;;;;707.53;640.97;;;10.10;99.90;;;;;;4929371;29;20047;-75
2024/01/24 00:22:56;;;;;;;700.57;622.17;;;10.10;99.90;;;;;;4930162;29;20099;-75
2024/01/24 00:25:22;;;;;;;858.53;668.33;;;10.10;99.90;;;;;;4949500;28;20039;-75
2024/01/24 00:27:47;;;;;;;716.23;652.27;;;10.10;99.90;;;;;;4948532;29;20035;-75
2024/01/24 00:30:13;;;;;;;701.33;634.23;;;10.10;99.90;;;;;;4974900;28;20521;-75
2024/01/24 00:32:39;;;;;;;610.57;556.13;;;10.10;99.90;;;;;;4941767;28;20040;-75
2024/01/24 00:35:05;;;;;;;735.43;655.53;;;10.10;99.90;;;;;;4931161;29;20089;-76
2024/01/24 00:37:31;;;;;;;865.77;768.23;;;10.10;99.90;;;;;;4947703;28;20035;-75
2024/01/24 00:39:56;;;;;;;784.40;708.20;;;10.00;99.90;;;;;;4929422;29;20284;-76
2024/01/24 00:42:22;;;;;;;761.80;679.83;;;10.00;99.90;;;;;;4945505;28;20110;-75
2024/01/24 00:44:50;;;;;;;816.83;726.33;;;10.00;99.90;;;;;;4949791;28;20046;-75
2024/01/24 00:47:20;;;;;;;737.83;663.77;;;10.00;99.90;;;;;;4953059;28;20047;-76
2024/01/24 00:49:46;;;;;;;1034.23;817.53;;;10.00;99.90;;;;;;4952909;28;20413;-75
2024/01/24 00:52:12;;;;;;;770.60;690.70;;;10.00;99.90;;;;;;4953559;28;20650;-76
2024/01/24 00:54:38;;;;;;;739.80;667.50;;;10.00;99.90;;;;;;4943674;28;20286;-75
2024/01/24 00:57:04;;;;;;;653.60;593.50;;;10.00;99.90;;;;;;4936757;29;20793;-75
2024/01/24 00:59:30;;;;;;;777.77;687.90;;;9.90;99.90;;;;;;4960825;28;20373;-75
2024/01/24 01:01:56;;;;;;;844.23;698.90;;;9.90;99.90;;;;;;4956931;28;20040;-75
2024/01/24 01:04:22;;;;;;;963.20;744.03;;;9.90;99.90;;;;;;4934250;28;20094;-75
2024/01/24 01:06:48;;;;;;;917.27;771.90;;;10.00;99.90;;;;;;4947465;28;20290;-75
2024/01/24 01:09:14;;;;;;;880.17;761.37;;;10.00;99.90;;;;;;4954291;28;20051;-75
2024/01/24 01:11:39;;;;;;;718.57;647.03;;;10.00;99.90;;;;;;4940641;28;20035;-75
2024/01/24 01:14:05;;;;;;;1196.70;867.60;;;10.10;99.90;;;;;;4938783;29;20045;-74
2024/01/24 01:16:31;;;;;;;784.23;700.80;;;10.10;99.90;;;;;;4955842;28;20071;-75
2024/01/24 01:18:57;;;;;;;1120.17;829.23;;;10.10;99.90;;;;;;4944770;28;20434;-74
2024/01/24 01:21:22;;;;;;;1331.60;818.50;;;10.20;99.90;;;;;;4948771;28;20134;-75
2024/01/24 01:23:48;;;;;;;667.23;607.93;;;10.20;99.90;;;;;;4942012;28;20048;-75
2024/01/24 01:26:14;;;;;;;984.03;785.00;;;10.30;99.90;;;;;;4946010;28;20129;-75
2024/01/24 01:28:39;;;;;;;1137.43;821.23;;;10.40;99.90;;;;;;4947907;28;20031;-74
2024/01/24 01:31:05;;;;;;;935.80;754.17;;;10.50;99.90;;;;;;4948360;28;20098;-76
2024/01/24 01:33:31;;;;;;;835.97;746.90;;;10.50;99.90;;;;;;4935523;28;20039;-75
2024/01/24 01:35:56;;;;;;;1193.23;807.17;;;10.50;99.90;;;;;;4950682;28;20031;-74
2024/01/24 01:38:22;;;;;;;894.10;751.23;;;10.60;99.90;;;;;;4936951;29;20082;-75
2024/01/24 01:40:48;;;;;;;1225.33;824.13;;;10.60;99.90;;;;;;4956571;29;20122;-76
2024/01/24 01:43:15;;;;;;;724.00;653.37;;;10.60;99.90;;;;;;4934477;29;20047;-75
2024/01/24 01:45:41;;;;;;;1178.10;827.83;;;10.70;99.90;;;;;;4952874;28;20832;-76
2024/01/24 01:48:11;;;;;;;781.17;691.43;;;10.70;99.90;;;;;;4935734;29;20369;-74
2024/01/24 01:50:38;;;;;;;1112.97;823.23;;;10.70;99.90;;;;;;4951870;29;20298;-75
2024/01/24 01:53:05;;;;;;;1324.57;819.27;;;10.70;99.90;;;;;;4932501;29;20283;-75
2024/01/24 01:55:33;;;;;;;837.93;737.53;;;10.70;99.90;;;;;;4958812;29;20283;-77
2024/01/24 01:58:00;;;;;;;1613.97;902.27;;;10.70;99.90;;;;;;4935905;29;20286;-75
2024/01/24 02:00:26;;;;;;;1375.00;902.53;;;10.60;99.90;;;;;;4939402;29;20769;-75
2024/01/24 02:02:53;;;;;;;1121.80;813.70;;;10.70;99.90;;;;;;4929931;28;20812;-73
2024/01/24 02:05:19;;;;;;;1164.87;822.10;;;10.70;99.90;;;;;;4973578;28;20373;-75
2024/01/24 02:07:45;;;;;;;882.77;744.50;;;10.70;99.90;;;;;;4955606;28;20283;-75
2024/01/24 02:10:12;;;;;;;1059.57;818.03;;;10.60;99.90;;;;;;4969648;28;20310;-75
2024/01/24 02:12:38;;;;;;;1071.43;797.07;;;10.60;99.90;;;;;;4955640;28;20294;-74
2024/01/24 02:15:04;;;;;;;1259.87;852.10;;;10.50;99.90;;;;;;4959881;28;20279;-75
2024/01/24 02:17:29;;;;;;;1023.07;777.07;;;10.50;99.90;;;;;;4946831;29;20042;-75
2024/01/24 02:19:55;;;;;;;1362.33;855.87;;;10.50;99.90;;;;;;4945207;29;20289;-75
2024/01/24 02:22:21;;;;;;;1050.70;835.57;;;10.30;99.90;;;;;;4956044;28;20058;-73
2024/01/24 02:24:47;;;;;;;1694.90;916.33;;;10.30;99.90;;;;;;4957431;28;20287;-75
2024/01/24 02:27:13;;;;;;;1221.43;854.93;;;10.30;99.90;;;;;;4965347;28;20039;-75
2024/01/24 02:29:39;;;;;;;1191.73;852.77;;;10.30;99.90;;;;;;4947333;29;20494;-73
2024/01/24 02:32:05;;;;;;;928.23;720.47;;;10.20;99.90;;;;;;4966758;28;20426;-75
2024/01/24 02:34:31;;;;;;;861.93;769.93;;;10.20;99.90;;;;;;4961151;28;20039;-75
2024/01/24 02:36:57;;;;;;;1335.10;861.23;;;10.10;99.90;;;;;;4960366;29;20361;-74
2024/01/24 02:39:23;;;;;;;1398.43;896.10;;;10.10;99.90;;;;;;4966989;28;20485;-74
2024/01/24 02:41:48;;;;;;;721.63;643.77;;;10.00;99.90;;;;;;4943991;29;20027;-74
2024/01/24 02:44:14;;;;;;;1246.93;850.13;;;9.90;99.90;;;;;;4962859;28;20055;-75
2024/01/24 02:46:40;;;;;;;944.80;723.50;;;10.00;99.90;;;;;;4963077;28;20038;-74
2024/01/24 02:49:05;;;;;;;824.00;734.07;;;10.00;99.90;;;;;;4964182;28;20051;-74
2024/01/24 02:51:31;;;;;;;1089.63;800.10;;;10.00;99.90;;;;;;4966957;28;20137;-74
2024/01/24 02:53:57;;;;;;;1064.57;756.87;;;10.00;99.90;;;;;;4980489;28;20070;-74
2024/01/24 02:56:22;;;;;;;1242.47;846.23;;;10.00;99.90;;;;;;4970990;28;20039;-73
2024/01/24 02:58:48;;;;;;;900.77;794.63;;;10.00;99.90;;;;;;4954927;28;20065;-76
2024/01/24 03:01:15;;;;;;;972.20;799.33;;;9.90;99.90;;;;;;4955728;29;20050;-75
2024/01/24 03:03:43;;;;;;;742.67;657.67;;;9.90;99.90;;;;;;4953047;28;20070;-75
2024/01/24 03:06:09;;;;;;;731.47;660.73;;;9.90;99.90;;;;;;4966852;28;20291;-74
2024/01/24 03:08:53;;;;;;;762.83;683.03;;;9.90;99.90;;;;;;4965888;28;20309;-76
2024/01/24 03:11:19;;;;;;;1368.93;847.17;;;9.80;99.90;;;;;;4962253;28;20077;-74
2024/01/24 03:13:45;;;;;;;1070.97;765.67;;;9.80;99.90;;;;;;4950400;28;20665;-75
2024/01/24 03:16:10;;;;;;;852.13;744.17;;;9.80;99.90;;;;;;4946530;29;20040;-75
2024/01/24 03:18:37;;;;;;;1099.93;785.07;;;9.80;99.90;;;;;;4952784;28;20147;-74
2024/01/24 03:21:07;;;;;;;901.50;708.97;;;9.80;99.90;;;;;;4943114;29;20038;-75
2024/01/24 03:23:33;;;;;;;729.60;652.83;;;9.80;99.90;;;;;;4942438;28;20290;-75
2024/01/24 03:25:59;;;;;;;1075.50;816.90;;;9.90;99.90;;;;;;4963329;28;20360;-75
2024/01/24 03:28:24;;;;;;;580.70;529.47;;;9.90;99.90;;;;;;4964306;28;20370;-75
2024/01/24 03:30:50;;;;;;;854.17;704.90;;;9.90;99.90;;;;;;4964869;28;20039;-76
2024/01/24 03:33:16;;;;;;;1201.97;841.17;;;9.90;99.90;;;;;;4944276;29;20039;-75
2024/01/24 03:35:41;;;;;;;606.73;552.93;;;9.80;99.90;;;;;;4966263;28;20106;-74
2024/01/24 03:38:08;;;;;;;700.00;629.83;;;9.80;99.90;;;;;;4952178;29;20046;-75
2024/01/24 03:40:34;;;;;;;1110.23;848.90;;;9.90;99.90;;;;;;4949332;29;20461;-76
2024/01/24 03:42:59;;;;;;;787.90;704.03;;;9.90;99.90;;;;;;4951972;29;20356;-74
2024/01/24 03:45:25;;;;;;;719.37;648.80;;;9.90;99.90;;;;;;4943615;29;20040;-75
2024/01/24 03:47:50;;;;;;;762.67;679.47;;;10.00;99.90;;;;;;4937348;29;20083;-76
2024/01/24 03:50:16;;;;;;;594.30;536.47;;;10.00;99.90;;;;;;4952190;28;20055;-74
2024/01/24 03:52:42;;;;;;;1166.00;765.57;;;10.00;99.90;;;;;;4946484;28;20039;-75
2024/01/24 03:55:08;;;;;;;834.50;676.80;;;10.00;99.90;;;;;;4961031;28;20039;-76
2024/01/24 03:57:33;;;;;;;777.77;632.93;;;10.00;99.90;;;;;;4954761;28;20078;-74
2024/01/24 03:59:59;;;;;;;1264.03;745.97;;;10.00;99.90;;;;;;4958032;28;20051;-77
2024/01/24 04:02:25;;;;;;;993.80;694.93;;;10.10;99.90;;;;;;4948616;29;20081;-74
2024/01/24 04:04:50;;;;;;;797.33;694.67;;;10.10;99.90;;;;;;4959456;28;20061;-74
2024/01/24 04:07:16;;;;;;;1131.93;846.73;;;10.10;99.90;;;;;;4968471;28;20055;-75
2024/01/24 04:09:42;;;;;;;1406.23;808.43;;;10.10;99.90;;;;;;4952651;29;20046;-74
2024/01/24 04:12:08;;;;;;;873.43;692.87;;;10.10;99.90;;;;;;4955078;29;20040;-75
2024/01/24 04:14:34;;;;;;;608.03;548.10;;;10.10;99.90;;;;;;4944503;28;20374;-75
2024/01/24 04:17:00;;;;;;;619.53;564.57;;;10.10;99.90;;;;;;4950214;29;20703;-74
2024/01/24 04:19:26;;;;;;;782.50;637.90;;;10.00;99.90;;;;;;4948164;29;20050;-74
2024/01/24 04:21:52;;;;;;;904.17;717.27;;;9.90;99.90;;;;;;4939870;28;20071;-75
2024/01/24 04:24:17;;;;;;;832.47;689.77;;;9.70;99.90;;;;;;4953078;28;20061;-76
2024/01/24 04:26:43;;;;;;;721.80;628.90;;;9.60;99.90;;;;;;4954468;28;20370;-74
2024/01/24 04:29:09;;;;;;;696.83;625.53;;;9.60;99.90;;;;;;4942553;28;20076;-74
2024/01/24 04:31:34;;;;;;;836.07;717.20;;;9.50;99.90;;;;;;4950403;28;20055;-75
2024/01/24 04:34:00;;;;;;;634.00;576.13;;;9.50;99.90;;;;;;4951640;28;20082;-74
2024/01/24 04:36:26;;;;;;;656.57;592.70;;;9.50;99.90;;;;;;4930937;29;20407;-75
2024/01/24 04:38:51;;;;;;;861.00;656.53;;;9.50;99.90;;;;;;4952854;28;20047;-75
2024/01/24 04:41:17;;;;;;;676.17;605.50;;;9.50;99.90;;;;;;4938887;28;20540;-73
2024/01/24 04:43:43;;;;;;;1212.83;819.90;;;9.50;99.90;;;;;;4935022;29;20047;-74
2024/01/24 04:46:13;;;;;;;749.50;664.17;;;9.40;99.90;;;;;;4945689;28;20047;-74
2024/01/24 04:48:41;;;;;;;767.63;620.43;;;9.40;99.90;;;;;;4954264;28;20051;-74
2024/01/24 04:51:07;;;;;;;830.93;690.70;;;9.50;99.90;;;;;;4939568;28;20301;-74
2024/01/24 04:53:33;;;;;;;810.33;658.53;;;9.50;99.90;;;;;;4933323;29;20279;-74
2024/01/24 04:55:59;;;;;;;620.73;563.40;;;9.60;99.90;;;;;;4937286;29;20278;-75
2024/01/24 04:58:24;;;;;;;1115.00;764.50;;;9.60;99.90;;;;;;4948463;28;20058;-74
2024/01/24 05:00:50;;;;;;;984.43;687.53;;;9.50;99.90;;;;;;4945126;28;20097;-73
2024/01/24 05:03:15;;;;;;;962.33;740.63;;;9.50;99.80;;;;;;4954492;28;20047;-74
2024/01/24 05:05:41;;;;;;;531.47;486.80;;;9.60;98.80;;;;;;4941170;28;20497;-75
2024/01/24 05:08:07;;;;;;;789.13;695.27;;;9.60;99.90;;;;;;4933747;28;20043;-75
2024/01/24 05:10:33;;;;;;;658.73;595.73;;;9.50;99.00;;;;;;4953000;28;20046;-75
2024/01/24 05:12:59;;;;;;;775.10;691.57;;;9.50;99.20;;;;;;4951356;28;20576;-75
2024/01/24 05:15:25;;;;;;;679.43;614.27;;;9.50;98.50;;;;;;4937109;29;20314;-77
2024/01/24 05:17:50;;;;;;;733.83;657.23;;;9.50;98.50;;;;;;4958618;28;20047;-76
2024/01/24 05:20:17;;;;;;;1287.53;822.33;;;9.50;98.50;;;;;;4944340;29;20039;-75
2024/01/24 05:22:43;;;;;;;618.90;560.07;;;9.40;97.90;;;;;;4939988;29;20039;-77
2024/01/24 05:25:10;;;;;;;626.73;572.30;;;9.40;97.90;;;;;;4932520;29;20294;-75
2024/01/24 05:27:35;;;;;;;1128.63;797.07;;;9.40;97.50;;;;;;4939341;29;20810;-74
2024/01/24 05:30:01;;;;;;;1157.43;752.70;;;9.30;97.00;;;;;;4957574;28;20302;-75
2024/01/24 05:32:29;;;;;;;846.27;682.67;;;9.20;96.40;;;;;;4956733;29;20090;-75
2024/01/24 05:34:54;;;;;;;651.47;589.03;;;9.20;96.70;;;;;;4934716;29;20287;-76
2024/01/24 05:37:20;;;;;;;491.83;452.03;;;9.10;96.40;;;;;;4951736;28;20089;-75
2024/01/24 05:39:47;;;;;;;1015.97;757.37;;;9.10;96.00;;;;;;4952760;28;20036;-75
2024/01/24 05:42:15;;;;;;;621.83;562.10;;;9.10;95.40;;;;;;4949820;28;20295;-75
2024/01/24 05:44:41;;;;;;;736.93;592.77;;;9.10;95.40;;;;;;4936314;29;20283;-76
2024/01/24 05:47:06;;;;;;;761.33;678.50;;;9.10;95.30;;;;;;4948283;28;20043;-76
2024/01/24 05:49:38;;;;;;;584.80;529.10;;;9.10;94.40;;;;;;4954756;28;20044;-75
2024/01/24 05:52:05;;;;;;;451.80;410.43;;;9.10;95.10;;;;;;4946366;28;20045;-76
2024/01/24 05:54:31;;;;;;;720.30;627.73;;;9.10;95.10;;;;;;4940517;29;20303;-76
2024/01/24 05:56:57;;;;;;;601.63;542.90;;;9.10;94.90;;;;;;4958818;28;20275;-76
2024/01/24 05:59:23;;;;;;;666.40;597.10;;;9.10;95.60;;;;;;4963065;29;20385;-76
2024/01/24 06:01:50;;;;;;;950.27;692.70;;;9.10;96.20;;;;;;4963709;28;20050;-75
2024/01/24 06:04:16;;;;;;;576.23;522.07;;;9.00;95.50;;;;;;4952743;28;20314;-75
2024/01/24 06:06:41;;;;;;;784.03;627.50;;;9.00;95.90;;;;;;4962244;28;20283;-75
2024/01/24 06:09:07;;;;;;;1159.73;768.50;;;9.00;95.20;;;;;;4951565;29;20035;-74
2024/01/24 06:11:33;;;;;;;636.37;574.43;;;8.90;93.90;;;;;;4948366;29;20537;-75
2024/01/24 06:13:59;;;;;;;471.57;433.83;;;8.90;93.80;;;;;;4964930;28;20090;-74
2024/01/24 06:16:25;;;;;;;667.53;597.77;;;8.90;94.20;;;;;;4960935;28;20074;-76
2024/01/24 06:18:50;;;;;;;582.03;525.13;;;8.90;92.90;;;;;;4948146;29;20060;-76
2024/01/24 06:21:16;;;;;;;540.13;489.67;;;8.90;92.20;;;;;;4950402;28;20047;-75
2024/01/24 06:23:42;;;;;;;555.83;502.10;;;8.80;92.90;;;;;;4960207;28;20078;-76
2024/01/24 06:26:07;;;;;;;683.30;619.17;;;8.70;92.20;;;;;;4962604;28;20075;-74
2024/01/24 06:28:34;;;;;;;533.20;480.67;;;8.70;91.80;;;;;;4943648;29;20079;-76
2024/01/24 06:31:00;;;;;;;741.27;633.80;;;8.70;91.70;;;;;;4955064;29;20290;-75
2024/01/24 06:33:26;;;;;;;961.33;738.03;;;8.60;92.30;;;;;;4941151;29;20039;-76
2024/01/24 06:35:51;;;;;;;595.67;535.97;;;8.60;92.40;;;;;;4959815;29;20084;-75
2024/01/24 06:38:17;;;;;;;623.20;561.67;;;8.60;91.80;;;;;;4959759;28;20103;-74
2024/01/24 06:40:43;;;;;;;1063.67;691.17;;;8.60;91.70;;;;;;4971234;29;20039;-75
2024/01/24 06:43:11;;;;;;;1512.43;830.30;;;8.60;91.40;;;;;;4960368;28;20035;-74
2024/01/24 06:45:36;;;;;;;861.13;651.67;;;8.60;91.00;;;;;;4948549;29;20046;-76
2024/01/24 06:48:02;;;;;;;494.17;452.40;;;8.60;91.20;;;;;;4965498;29;20295;-76
2024/01/24 06:50:29;;;;;;;432.60;399.50;;;8.60;91.30;;;;;;4947246;28;20045;-75
2024/01/24 06:52:55;;;;;;;575.50;518.40;;;8.50;91.90;;;;;;4962964;29;20070;-76
2024/01/24 06:55:21;;;;;;;483.15;441.63;;;8.50;91.80;;;;;;4951941;28;20324;-75
2024/01/24 06:57:47;;;;;;;678.67;603.90;;;8.50;91.90;;;;;;4955027;29;20027;-75
2024/01/24 07:00:12;;;;;;;475.90;431.57;;;8.50;91.70;;;;;;4970036;28;20026;-75
2024/01/24 07:02:38;;;;;;;1018.83;723.80;;;8.60;91.20;;;;;;4964446;28;20050;-76
2024/01/24 07:05:05;;;;;;;680.13;609.97;;;8.60;90.50;;;;;;4962061;28;20134;-75
2024/01/24 07:07:31;;;;;;;853.83;644.10;;;8.60;91.00;;;;;;4964200;28;20052;-75
2024/01/24 07:09:57;;;;;;;719.00;632.60;;;8.50;91.20;;;;;;4955902;29;20370;-76
2024/01/24 07:12:22;;;;;;;491.70;449.83;;;8.50;92.10;;;;;;4976338;28;20336;-74
2024/01/24 07:14:48;;;;;;;569.73;515.33;;;8.50;92.70;;;;;;4956495;29;20379;-75
2024/01/24 07:17:15;;;;;;;820.03;631.90;;;8.50;93.00;;;;;;4951877;28;20043;-76
2024/01/24 07:19:41;;;;;;;1029.03;697.23;;;8.50;93.40;;;;;;4967720;28;20079;-75
2024/01/24 07:22:06;;;;;;;689.00;559.23;;;8.50;93.80;;;;;;4949223;28;20303;-75
2024/01/24 07:24:32;;;;;;;475.33;434.80;;;8.60;94.30;;;;;;4947884;29;20106;-76
2024/01/24 07:26:58;;;;;;;558.30;506.70;;;8.60;94.50;;;;;;4949611;29;20523;-75
2024/01/24 07:29:24;;;;;;;569.33;515.63;;;8.50;95.10;;;;;;4964746;28;20058;-76
2024/01/24 07:31:50;;;;;;;779.73;647.13;;;8.50;95.50;;;;;;4956963;28;20311;-75
2024/01/24 07:34:16;;;;;;;609.93;546.27;;;8.50;95.70;;;;;;4966887;28;20043;-76
2024/01/24 07:36:42;;;;;;;696.73;626.20;;;8.50;95.50;;;;;;4956498;28;20067;-76
2024/01/24 07:39:08;;;;;;;684.05;588.67;;;8.50;95.50;;;;;;4954331;28;20290;-76
2024/01/24 07:41:34;;;;;;;682.30;609.83;;;8.60;95.30;;;;;;4957523;29;20051;-76
2024/01/24 07:44:00;;;;;;;609.60;548.33;;;8.50;95.60;;;;;;4958897;29;20050;-75
2024/01/24 07:46:29;;;;;;;857.13;657.00;;;8.50;95.30;;;;;;4936574;29;20295;-76
2024/01/24 07:48:55;;;;;;;1054.25;726.25;;;8.50;95.20;;;;;;4943046;28;20044;-74
2024/01/24 07:51:20;;;;;;;427.40;391.77;;;8.50;95.00;;;;;;4968556;28;20034;-75
2024/01/24 07:53:47;;;;;;;817.23;619.93;;;8.50;94.50;;;;;;4978865;28;20086;-75
2024/01/24 07:56:13;;;;;;;638.30;502.42;;;8.50;94.90;;;;;;4955700;28;20510;-76
2024/01/24 07:58:42;;;;;;;936.10;695.73;;;8.50;95.00;;;;;;4975431;28;20039;-75
2024/01/24 08:01:09;;;;;;;625.40;563.85;;;8.40;94.90;;;;;;4953854;28;20311;-75
2024/01/24 08:03:35;;;;;;;1373.68;869.38;;;8.40;95.00;;;;;;4953803;28;20047;-75
2024/01/24 08:06:01;;;;;;;503.70;454.43;;;8.40;94.40;;;;;;4972613;28;20140;-75
2024/01/24 08:08:27;;;;;;;570.78;518.33;;;8.40;94.30;;;;;;4973630;28;20039;-75
2024/01/24 08:10:53;;;;;;;823.77;699.20;;;8.40;94.30;;;;;;4957645;29;20071;-75
2024/01/24 08:13:19;;;;;;;723.97;592.43;;;8.40;94.10;;;;;;4953388;29;20039;-75
2024/01/24 08:15:48;;;;;;;659.85;582.17;;;8.40;94.10;;;;;;4984152;28;20083;-75
2024/01/24 08:18:14;;;;;;;500.17;458.23;;;8.40;94.40;;;;;;4949701;28;20051;-75
2024/01/24 08:20:40;;;;;;;810.40;678.77;;;8.30;95.10;;;;;;4991884;28;20299;-75
2024/01/24 08:23:05;;;;;;;619.83;558.77;;;8.30;94.30;;;;;;4958182;29;20477;-75
2024/01/24 08:25:31;;;;;;;669.03;597.03;;;8.40;93.80;;;;;;4955882;29;20062;-75
2024/01/24 08:27:57;;;;;;;975.37;697.33;;;8.40;94.10;;;;;;4965489;28;20051;-75
2024/01/24 08:30:23;;;;;;;1601.30;888.83;;;8.40;93.60;;;;;;4971935;28;20047;-75
2024/01/24 08:32:49;;;;;;;596.70;533.03;;;8.40;93.60;;;;;;4946612;29;20054;-75
2024/01/24 08:35:15;;;;;;;602.72;543.15;;;8.40;93.90;;;;;;4966949;29;20095;-75
2024/01/24 08:37:41;;;;;;;422.87;388.53;;;8.40;93.80;;;;;;4953523;29;20126;-75
2024/01/24 08:40:08;;;;;;;715.67;604.13;;;8.40;94.10;;;;;;4961177;28;20389;-75
2024/01/24 08:42:34;;;;;;;432.97;397.47;;;8.40;93.90;;;;;;4942306;28;20044;-75
2024/01/24 08:45:00;;;;;;;1055.80;718.67;;;8.40;94.80;;;;;;4937097;29;20292;-74
2024/01/24 08:47:25;;;;;;;602.53;542.53;;;8.40;94.40;;;;;;4948610;29;20118;-75
2024/01/24 08:49:53;;;;;;;677.53;605.90;;;8.40;94.30;;;;;;4960972;28;20047;-74
2024/01/24 08:52:19;;;;;;;455.87;418.73;;;8.40;94.90;;;;;;4972006;28;20396;-75
2024/01/24 08:54:45;;;;;;;447.53;410.93;;;8.40;94.80;;;;;;4962567;28;20288;-75
2024/01/24 08:57:10;;;;;;;533.10;479.60;;;8.40;94.60;;;;;;4945353;29;20039;-75
2024/01/24 08:59:40;;;;;;;441.53;406.67;;;8.40;95.10;;;;;;4949060;29;20038;-75
2024/01/24 09:02:07;;;;;;;506.05;462.25;;;8.40;95.20;;;;;;4964487;28;20023;-76
2024/01/24 09:04:33;;;;;;;517.65;473.88;;;8.40;95.00;;;;;;4965314;28;20308;-76
2024/01/24 09:06:58;;;;;;;621.00;561.40;;;8.40;94.70;;;;;;4961568;28;20130;-75
2024/01/24 09:09:25;;;;;;;521.33;476.20;;;8.50;94.60;;;;;;4963788;28;20138;-75
2024/01/24 09:11:51;;;;;;;517.03;471.50;;;8.50;94.20;;;;;;4951648;29;20043;-75
2024/01/24 09:14:18;;;;;;;511.57;462.77;;;8.50;94.30;;;;;;4960863;28;20279;-75
2024/01/24 09:16:44;;;;;;;560.17;504.60;;;8.60;93.90;;;;;;4969481;28;20059;-75
2024/01/24 09:19:09;;;;;;;595.63;537.00;;;8.60;94.70;;;;;;4967412;28;20287;-75
2024/01/24 09:21:36;;;;;;;777.60;590.93;;;8.60;95.00;;;;;;4942351;28;20054;-75
2024/01/24 09:24:03;;;;;;;614.87;550.00;;;8.60;94.50;;;;;;4950721;29;20125;-76
2024/01/24 09:26:29;;;;;;;1274.77;691.47;;;8.60;94.70;;;;;;4966246;28;20294;-76
2024/01/24 09:28:54;;;;;;;787.83;575.60;;;8.60;94.20;;;;;;4963253;29;20338;-75
2024/01/24 09:31:20;;;;;;;512.60;469.27;;;8.60;94.40;;;;;;4953937;29;20448;-76
2024/01/24 09:33:46;;;;;;;588.07;531.80;;;8.60;94.40;;;;;;4965614;28;20090;-76
2024/01/24 09:36:13;;;;;;;494.10;452.70;;;8.70;94.10;;;;;;4962936;28;20044;-76
2024/01/24 09:38:42;;;;;;;633.43;567.70;;;8.60;94.50;;;;;;4945883;28;20015;-75
2024/01/24 09:41:16;;;;;;;633.67;568.20;;;8.70;94.50;;;;;;4971046;28;20300;-77
2024/01/24 09:43:43;;;;;;;686.90;612.72;;;8.70;94.50;;;;;;4946824;29;20291;-76
2024/01/24 09:46:14;;;;;;;511.33;464.70;;;8.70;94.50;;;;;;4963889;28;20047;-77
2024/01/24 09:48:41;;;;;;;455.33;418.40;;;8.80;94.00;;;;;;4964044;28;20314;-77
2024/01/24 09:51:08;;;;;;;596.57;540.90;;;8.80;94.20;;;;;;4964904;28;20302;-77
2024/01/24 09:53:36;;;;;;;690.50;603.20;;;8.80;93.00;;;;;;4947837;28;20286;-77
2024/01/24 09:56:02;;;;;;;1176.77;760.33;;;8.80;93.90;;;;;;4960898;28;20275;-76
2024/01/24 09:58:28;;;;;;;809.63;622.97;;;8.80;93.00;;;;;;4943916;29;20341;-76
2024/01/24 10:00:56;;;;;;;826.90;602.77;;;8.90;92.90;;;;;;4953585;28;20698;-76
2024/01/24 10:03:23;;;;;;;464.57;427.00;;;8.90;92.80;;;;;;4955737;28;20457;-77
2024/01/24 10:05:50;;;;;;;677.03;559.73;;;8.90;93.60;;;;;;4931276;28;20364;-78
2024/01/24 10:08:18;;;;;;;503.10;461.03;;;8.90;93.70;;;;;;4945026;28;20298;-78
2024/01/24 10:10:45;;;;;;;444.00;409.33;;;8.90;93.10;;;;;;4947148;28;20284;-76
2024/01/24 10:13:11;;;;;;;570.47;508.50;;;8.90;93.70;;;;;;4944228;29;20405;-77
2024/01/24 10:15:37;;;;;;;487.63;445.47;;;8.90;93.50;;;;;;4957823;28;20294;-77
2024/01/24 10:18:04;;;;;;;565.90;516.83;;;8.90;93.10;;;;;;4961236;28;20271;-76
2024/01/24 10:20:30;;;;;;;457.83;419.17;;;9.00;92.70;;;;;;4960912;29;20283;-76
2024/01/24 10:22:55;;;;;;;511.60;469.90;;;9.00;93.30;;;;;;4944229;28;20286;-76
2024/01/24 10:25:21;;;;;;;729.17;644.07;;;9.00;93.00;;;;;;4941891;29;20051;-76
2024/01/24 10:27:47;;;;;;;520.30;473.73;;;9.00;93.10;;;;;;4958184;28;20046;-76
2024/01/24 10:30:15;;;;;;;632.77;567.30;;;8.90;93.30;;;;;;4942589;29;20315;-76
2024/01/24 10:32:46;;;;;;;598.80;537.27;;;9.00;92.40;;;;;;4948315;28;20306;-76
2024/01/24 10:35:12;;;;;;;650.03;587.50;;;9.00;92.60;;;;;;4972863;28;20420;-75
2024/01/24 10:37:40;;;;;;;456.10;419.60;;;9.00;92.80;;;;;;4941253;28;21658;-76
2024/01/24 10:40:11;;;;;;;415.30;383.10;;;9.00;92.70;;;;;;4968435;28;20079;-77
2024/01/24 10:42:40;;;;;;;590.60;537.90;;;9.00;92.70;;;;;;4962268;28;20997;-76
2024/01/24 10:45:07;;;;;;;599.77;544.37;;;9.10;92.20;;;;;;4936613;29;20287;-76
2024/01/24 10:47:35;;;;;;;506.17;462.20;;;9.10;92.10;;;;;;4947927;28;20290;-76
2024/01/24 10:50:03;;;;;;;467.63;428.20;;;9.10;92.60;;;;;;4947296;28;20835;-76
2024/01/24 10:52:30;;;;;;;460.93;421.10;;;9.10;92.70;;;;;;4959537;28;20358;-76
2024/01/24 10:55:03;;;;;;;490.30;450.07;;;9.10;93.30;;;;;;4936929;29;20703;-77
2024/01/24 10:57:31;;;;;;;568.13;517.40;;;9.10;93.50;;;;;;4959008;28;20317;-76
2024/01/24 10:59:57;;;;;;;448.47;413.33;;;9.10;92.40;;;;;;4947540;28;20278;-76
2024/01/24 11:02:23;;;;;;;612.50;552.07;;;9.10;92.70;;;;;;4953580;29;20792;-76
2024/01/24 11:04:51;;;;;;;504.07;462.10;;;9.10;92.00;;;;;;4958329;28;20306;-76
2024/01/24 11:07:27;;;;;;;501.97;460.57;;;9.10;91.70;;;;;;4954069;29;20082;-76
2024/01/24 11:10:01;;;;;;;695.30;582.33;;;9.10;92.10;;;;;;4964644;28;20303;-76
2024/01/24 11:12:28;;;;;;;570.90;513.05;;;9.20;91.60;;;;;;4963163;28;20294;-76
2024/01/24 11:15:05;;;;;;;535.07;491.27;;;9.20;91.90;;;;;;4959350;28;20034;-76
2024/01/24 11:17:32;;;;;;;521.17;474.13;;;9.30;91.80;;;;;;4954728;28;20293;-76
2024/01/24 11:19:58;;;;;;;502.53;461.40;;;9.40;91.40;;;;;;4940454;29;20288;-76
2024/01/24 11:22:25;;;;;;;412.43;381.07;;;9.40;91.00;;;;;;4950480;29;20317;-76
2024/01/24 11:24:54;;;;;;;572.37;519.43;;;9.50;90.30;;;;;;4966691;29;20051;-76
2024/01/24 11:27:34;;;;;;;505.17;463.10;;;9.50;90.30;;;;;;4944641;29;20315;-77
2024/01/24 11:30:06;;;;;;;485.07;444.40;;;9.50;90.00;;;;;;4943873;29;20339;-76
2024/01/24 11:32:44;;;;;;;526.27;482.17;;;9.60;90.30;;;;;;4962595;28;20346;-75
2024/01/24 11:35:38;;;;;;;504.00;465.27;;;9.60;89.70;;;;;;4966025;28;20359;-76
2024/01/24 11:38:26;;;;;;;436.70;404.73;;;9.60;89.60;;;;;;4949452;29;20285;-76
2024/01/24 11:41:23;;;;;;;551.77;496.77;;;9.50;88.80;;;;;;4951675;28;20295;-76
2024/01/24 11:43:49;;;;;;;475.40;435.27;;;9.50;88.70;;;;;;4947472;28;20286;-76
2024/01/24 11:46:15;;;;;;;624.83;566.73;;;9.50;89.00;;;;;;4954322;28;20296;-75
2024/01/24 11:48:41;;;;;;;595.80;540.10;;;9.50;89.10;;;;;;4975955;28;20519;-76
2024/01/24 11:51:11;;;;;;;474.37;435.50;;;9.50;88.10;;;;;;4950722;29;20035;-79
2024/01/24 11:53:37;;;;;;;500.83;460.67;;;9.50;88.90;;;;;;4976740;28;20043;-77
2024/01/24 11:56:04;;;;;;;485.50;447.77;;;9.50;88.90;;;;;;4948431;29;20286;-78
2024/01/24 11:58:30;;;;;;;431.93;398.70;;;9.50;89.00;;;;;;4950254;28;20336;-78
2024/01/24 12:01:01;;;;;;;453.43;418.30;;;9.50;89.00;;;;;;4963184;28;20622;-78
2024/01/24 12:03:27;;;;;;;542.47;493.77;;;9.50;89.20;;;;;;4967443;28;20287;-77
2024/01/24 12:05:53;;;;;;;801.23;595.83;;;9.50;88.70;;;;;;4959451;28;20310;-77
2024/01/24 12:08:20;;;;;;;425.77;392.60;;;9.50;87.70;;;;;;4950542;28;20086;-78
2024/01/24 12:10:46;;;;;;;556.77;508.53;;;9.40;88.90;;;;;;4979293;28;20280;-78